Washington, DC (20580)

6:41 PM EDT on October 22, 2014 (GMT -0400)
DCNet Hoover Building Washington DC | Change Station
CLOSE
Current Station
Personal Weather Station
Location: Washington, DC
Elevation: 231 ft
Nearby Weather Stations

Elev 231 ft 38.89 °N, 77.03 °W | Updated 41 minutes ago

Overcast
Overcast
56 °F
Feels Like 56 °F
N
10
Wind Variable Wind from NW
Gusts 0.0 mph

Today
High -- | Low -- °F
--% Chance of Precip.
Yesterday
High -- | Low -- °F
Precip. -- in
7:24 AM 6:19 PM
Waning Crescent, 1% visible
Pressure 29.94 in
Visibility 10.0 miles
Clouds Few 2800 ft
Mostly Cloudy 4500 ft
Overcast 9000 ft
Dew Point 50 °F
Humidity 80%
Rainfall -999.00 in
Snow Depth Not available.
UV 0 out of 12
Pollen .50 out of 12
Air Quality Not available.
Flu Activity Sporadic
METAR KDCA 222152Z COR 33011KT 10SM FEW028 BKN045 OVC090 14/09 A2993 RMK AO2 SLP136 BINOVC T01390094

More Conditions Fewer Conditions

Pressure 29.94 in
Visibility 10.0 miles
Clouds Few 2800 ft
Mostly Cloudy 4500 ft
Overcast 9000 ft
Dew Point 50 °F
Humidity 80%
Rainfall -999.00 in
Snow Depth Not available.
UV 0 out of 12
Pollen .50 out of 12
Air Quality Not available.
Flu Activity Sporadic
METAR KDCA 222152Z COR 33011KT 10SM FEW028 BKN045 OVC090 14/09 A2993 RMK AO2 SLP136 BINOVC T01390094

More Conditions Fewer Conditions

10-Day Weather Forecast

Almanac

Astronomy

Oct. 22, 2014 Rise Set
Actual Time 7:24 AM EDT 6:19 PM EDT
Civil Twilight 6:57 AM EDT 6:46 PM EDT
Nautical Twilight 6:26 AM EDT 7:18 PM EDT
Astronomical Twilight 5:55 AM EDT 7:48 PM EDT
Moon 6:04 AM EDT 5:44 PM EDT
Length of Visible Light 11h 49m
Length of Day
10h 55m
Tomorrow will be 2m 23s shorter.
Waning Crescent, 1% of the Moon is Illuminated
Today
Waning Crescent
Oct 23
New
Oct 30
First Quarter
Nov 6
Full
Nov 14
Last Quarter

Today's Extremes

State Highs State Lows

Community

WunderPhotos

Upload Photos

1,764,065 photos uploaded!

WunderBlogs® & News

Nearby

Snow Depth

Station Depth Elevation
No new snow has been reported.

Earthquake Activity

City Distance Mag. Time & Date
No recent earthquake activity has been reported nearby.
Minimum magnitude displayed is 2.5.

Coastal Water Temperatures

Place Temperature
Washington, DC 63.0 °F
Baltimore, MD 64.9 °F
Solomons Island, MD 64.9 °F

Nearby Weather Stations